createdAt,value
2023-03-31T00:01:41.989Z,11.11
2023-03-31T00:04:46.467Z,11.08
2023-03-31T00:07:54.738Z,11.06
2023-03-31T00:11:00.553Z,11.07
2023-03-31T00:14:03.383Z,11.11
2023-03-31T00:17:05.952Z,11.02
2023-03-31T00:20:12.310Z,11.04
2023-03-31T00:23:16.572Z,10.91
2023-03-31T00:26:19.164Z,10.99
2023-03-31T00:29:21.758Z,10.95
2023-03-31T00:32:24.422Z,11.06
2023-03-31T00:35:27.149Z,10.99
2023-03-31T00:38:31.185Z,10.97
2023-03-31T00:41:33.853Z,11.00
2023-03-31T00:44:40.815Z,11.12
2023-03-31T00:47:45.727Z,11.10
2023-03-31T00:50:52.431Z,10.98
2023-03-31T00:54:00.692Z,10.98
2023-03-31T00:57:06.706Z,11.14
2023-03-31T01:00:14.474Z,11.21
2023-03-31T01:03:18.427Z,11.08
2023-03-31T01:06:21.181Z,11.17
2023-03-31T01:09:25.970Z,11.13
2023-03-31T01:12:29.014Z,11.07
2023-03-31T01:15:31.653Z,11.15
2023-03-31T01:18:35.341Z,11.11
2023-03-31T01:22:28.442Z,11.16
2023-03-31T01:26:04.497Z,11.02
2023-03-31T01:29:21.926Z,11.10
2023-03-31T01:32:43.135Z,11.07
2023-03-31T01:36:17.022Z,11.04
2023-03-31T01:40:10.503Z,11.12
2023-03-31T01:43:21.459Z,11.00
2023-03-31T01:46:29.664Z,10.86
2023-03-31T01:49:40.718Z,11.04
2023-03-31T01:52:48.586Z,11.01
2023-03-31T01:56:01.767Z,11.02
2023-03-31T01:59:12.820Z,10.79
2023-03-31T02:02:20.937Z,10.67
2023-03-31T02:05:26.724Z,10.67
2023-03-31T02:08:33.834Z,10.63
2023-03-31T02:11:39.035Z,10.57
2023-03-31T02:14:46.387Z,10.44
2023-03-31T02:17:54.622Z,10.53
2023-03-31T02:20:59.812Z,10.74
2023-03-31T02:24:05.912Z,10.63
2023-03-31T02:27:13.629Z,10.46
2023-03-31T02:30:17.653Z,10.71
2023-03-31T02:33:20.335Z,10.46
2023-03-31T02:36:23.581Z,10.29
2023-03-31T02:39:31.388Z,10.21
2023-03-31T02:42:33.997Z,10.26
2023-03-31T02:45:46.265Z,10.33
2023-03-31T02:48:54.343Z,10.54
2023-03-31T02:52:20.729Z,10.61
2023-03-31T02:55:53.245Z,10.14
2023-03-31T02:59:16.881Z,10.25
2023-03-31T03:02:32.479Z,10.50
2023-03-31T03:05:45.767Z,10.35
2023-03-31T03:09:02.824Z,10.24
2023-03-31T03:12:13.077Z,10.21
2023-03-31T03:15:19.967Z,10.10
2023-03-31T03:18:24.071Z,10.19
2023-03-31T03:21:27.433Z,10.13
2023-03-31T03:24:30.192Z,10.32
2023-03-31T03:27:33.138Z,10.25
2023-03-31T03:30:35.767Z,10.38
2023-03-31T03:33:39.752Z,10.22
2023-03-31T03:36:42.321Z,10.14
2023-03-31T03:39:44.911Z,10.31
2023-03-31T03:42:47.509Z,10.32
2023-03-31T03:45:50.251Z,10.38
2023-03-31T03:48:54.501Z,10.31
2023-03-31T03:51:57.049Z,10.44
2023-03-31T03:54:59.646Z,10.58
2023-03-31T03:58:02.263Z,10.64
2023-03-31T04:01:04.926Z,10.53
2023-03-31T04:04:09.054Z,10.76
2023-03-31T04:07:11.631Z,10.79
2023-03-31T04:10:14.512Z,10.85
2023-03-31T04:13:17.199Z,10.94
2023-03-31T04:16:19.803Z,10.92
2023-03-31T04:19:25.837Z,10.80
2023-03-31T04:22:34.898Z,10.85
2023-03-31T04:25:39.023Z,10.90
2023-03-31T04:28:46.660Z,10.93
2023-03-31T04:31:52.512Z,11.04
2023-03-31T04:35:03.000Z,10.93
2023-03-31T04:38:05.615Z,10.62
2023-03-31T04:41:08.404Z,10.60
2023-03-31T04:44:11.142Z,10.97
2023-03-31T04:47:13.760Z,10.92
2023-03-31T04:50:18.055Z,11.10
2023-03-31T04:53:20.643Z,11.14
2023-03-31T04:56:23.744Z,11.18
2023-03-31T04:59:26.372Z,11.15
2023-03-31T05:02:29.004Z,11.19
2023-03-31T05:05:33.048Z,11.17
2023-03-31T05:08:36.053Z,11.17
2023-03-31T05:11:38.836Z,11.04
2023-03-31T05:14:41.448Z,11.17
2023-03-31T05:17:44.068Z,10.90
2023-03-31T05:20:48.118Z,10.84
2023-03-31T05:23:50.969Z,11.09
2023-03-31T05:26:53.577Z,11.26
2023-03-31T05:29:56.156Z,11.24
2023-03-31T05:32:58.790Z,11.30
2023-03-31T05:36:02.797Z,11.21
2023-03-31T05:39:05.957Z,11.09
2023-03-31T05:42:08.528Z,11.25
2023-03-31T05:45:12.362Z,11.14
2023-03-31T05:48:15.246Z,11.07
2023-03-31T05:51:19.224Z,11.27
2023-03-31T05:54:22.681Z,11.24
2023-03-31T05:57:25.492Z,11.25
2023-03-31T06:00:28.156Z,11.33
2023-03-31T06:03:30.825Z,11.50
2023-03-31T06:06:37.619Z,11.39
2023-03-31T06:09:40.518Z,11.43
2023-03-31T06:12:43.078Z,11.37
2023-03-31T06:15:54.315Z,11.45
2023-03-31T06:18:56.940Z,11.64
2023-03-31T06:22:01.519Z,11.69
2023-03-31T06:25:04.369Z,11.68
2023-03-31T06:28:07.646Z,11.57
2023-03-31T06:31:12.513Z,11.78
2023-03-31T06:34:15.162Z,11.62
2023-03-31T06:37:19.156Z,11.66
2023-03-31T06:40:21.789Z,11.73
2023-03-31T06:43:24.640Z,11.11
2023-03-31T06:46:27.371Z,11.42
2023-03-31T06:49:30.013Z,11.56
2023-03-31T06:52:33.988Z,11.56
2023-03-31T06:55:36.791Z,11.44
2023-03-31T06:58:39.382Z,11.68
2023-03-31T07:01:42.635Z,11.55
2023-03-31T07:04:45.533Z,11.66
2023-03-31T07:07:49.454Z,11.80
2023-03-31T07:10:57.550Z,11.71
2023-03-31T07:14:00.142Z,11.71
2023-03-31T07:17:02.705Z,12.03
2023-03-31T07:20:10.496Z,12.01
2023-03-31T07:23:14.548Z,11.76
2023-03-31T07:26:17.239Z,11.66
2023-03-31T07:29:20.493Z,11.74
2023-03-31T07:32:23.665Z,11.72
2023-03-31T07:35:26.959Z,11.74
2023-03-31T07:38:31.050Z,11.89
2023-03-31T07:41:33.629Z,11.78
2023-03-31T07:44:36.360Z,12.04
2023-03-31T07:47:40.056Z,12.31
2023-03-31T07:50:42.813Z,12.12
2023-03-31T07:53:49.177Z,12.06
2023-03-31T07:56:51.835Z,12.05
2023-03-31T07:59:54.470Z,12.15
2023-03-31T08:02:57.039Z,12.20
2023-03-31T08:05:59.652Z,12.07
2023-03-31T08:09:05.050Z,11.86
2023-03-31T08:12:07.944Z,11.82
2023-03-31T08:15:10.914Z,11.86
2023-03-31T08:18:13.589Z,11.94
2023-03-31T08:21:16.235Z,12.00
2023-03-31T08:24:20.309Z,12.01
2023-03-31T08:27:22.903Z,11.91
2023-03-31T08:30:25.478Z,11.64
2023-03-31T08:33:29.031Z,11.86
2023-03-31T08:36:31.801Z,11.94
2023-03-31T08:39:37.158Z,11.98
2023-03-31T08:42:43.049Z,12.13
2023-03-31T08:45:48.601Z,11.98
2023-03-31T08:48:55.290Z,11.86
2023-03-31T08:52:00.769Z,11.85
2023-03-31T08:55:08.164Z,11.87
2023-03-31T08:58:19.717Z,11.59
2023-03-31T09:01:40.725Z,11.81
2023-03-31T09:05:15.267Z,11.76
2023-03-31T09:08:33.436Z,11.79
2023-03-31T09:11:44.481Z,11.71
2023-03-31T09:14:52.630Z,11.63
2023-03-31T09:17:58.734Z,11.62
2023-03-31T09:21:08.569Z,11.59
2023-03-31T09:24:17.209Z,11.84
2023-03-31T09:27:22.390Z,11.86
2023-03-31T09:30:29.038Z,11.96
2023-03-31T09:33:32.828Z,12.14
2023-03-31T09:36:35.603Z,11.84
2023-03-31T09:39:38.863Z,12.09
2023-03-31T09:42:42.870Z,12.19
2023-03-31T09:45:54.717Z,12.14
2023-03-31T09:49:07.821Z,12.16
2023-03-31T09:52:21.080Z,11.87
2023-03-31T09:55:38.945Z,12.01
2023-03-31T09:58:46.250Z,12.38
2023-03-31T10:01:51.759Z,12.43
2023-03-31T10:04:54.511Z,12.27
2023-03-31T10:08:28.499Z,12.52
2023-03-31T10:11:31.280Z,12.49
2023-03-31T10:14:42.886Z,12.45
2023-03-31T10:17:54.934Z,12.48
2023-03-31T10:20:59.358Z,12.61
2023-03-31T10:24:02.584Z,12.73
2023-03-31T10:27:07.980Z,12.68
2023-03-31T10:30:13.780Z,12.71
2023-03-31T10:33:23.090Z,12.83
2023-03-31T10:36:28.960Z,12.74
2023-03-31T10:39:33.684Z,12.83
2023-03-31T10:42:36.552Z,12.89
2023-03-31T10:45:46.422Z,13.11
2023-03-31T10:48:49.047Z,13.06
2023-03-31T10:51:54.560Z,12.99
2023-03-31T10:55:00.185Z,12.93
2023-03-31T10:58:13.609Z,12.96
2023-03-31T11:01:30.883Z,13.01
2023-03-31T11:04:49.307Z,13.14
2023-03-31T11:08:02.756Z,12.83
2023-03-31T11:11:20.446Z,13.00
2023-03-31T11:14:34.707Z,12.87
2023-03-31T11:17:53.047Z,12.87
2023-03-31T11:21:03.550Z,12.98
2023-03-31T11:24:14.037Z,12.86
2023-03-31T11:27:35.791Z,12.84
2023-03-31T11:30:41.382Z,12.71
2023-03-31T11:33:58.102Z,12.85
2023-03-31T11:37:23.747Z,12.92
2023-03-31T11:40:50.114Z,12.82
2023-03-31T11:43:56.456Z,12.89
2023-03-31T11:47:02.932Z,12.87
2023-03-31T11:50:13.335Z,12.85
2023-03-31T11:53:18.781Z,12.79
2023-03-31T11:56:23.196Z,12.80
2023-03-31T11:59:29.991Z,12.84
2023-03-31T12:02:42.457Z,12.68
2023-03-31T12:05:50.820Z,12.70
2023-03-31T12:09:06.415Z,12.76
2023-03-31T12:12:16.949Z,12.74
2023-03-31T12:15:24.669Z,12.47
2023-03-31T12:18:29.202Z,12.47
2023-03-31T12:21:37.739Z,12.60
2023-03-31T12:24:40.535Z,12.50
2023-03-31T12:27:44.960Z,12.25
2023-03-31T12:30:49.277Z,12.23
2023-03-31T12:33:57.378Z,12.15
2023-03-31T12:37:31.771Z,12.03
2023-03-31T12:40:47.333Z,12.13
2023-03-31T12:44:11.858Z,12.16
2023-03-31T12:47:35.898Z,12.32
2023-03-31T12:50:52.382Z,12.34
2023-03-31T12:54:09.654Z,12.17
2023-03-31T12:57:20.664Z,12.17
2023-03-31T13:00:26.913Z,12.28
2023-03-31T13:03:46.061Z,12.04
2023-03-31T13:06:57.098Z,11.82
2023-03-31T13:10:26.225Z,12.04
2023-03-31T13:13:29.191Z,12.45
2023-03-31T13:16:32.739Z,12.95
2023-03-31T13:19:37.279Z,13.16
2023-03-31T13:22:43.430Z,12.97
2023-03-31T13:25:50.283Z,13.08
2023-03-31T13:29:12.379Z,13.35
2023-03-31T13:32:24.674Z,13.51
2023-03-31T13:35:33.955Z,13.41
2023-03-31T13:38:50.722Z,13.59
2023-03-31T13:42:04.248Z,13.66
2023-03-31T13:45:20.335Z,13.53
2023-03-31T13:48:43.208Z,13.74
2023-03-31T13:51:57.956Z,13.63
2023-03-31T13:55:18.098Z,13.72
2023-03-31T13:59:04.313Z,13.61
2023-03-31T14:02:47.067Z,13.41
2023-03-31T14:05:56.838Z,13.37
2023-03-31T14:09:04.990Z,13.54
2023-03-31T14:12:21.782Z,13.29
2023-03-31T14:15:25.768Z,13.45
2023-03-31T14:18:33.365Z,13.59
2023-03-31T14:21:43.074Z,13.64
2023-03-31T14:24:54.054Z,13.72
2023-03-31T14:28:05.172Z,13.90
2023-03-31T14:31:20.804Z,13.53
2023-03-31T14:34:51.538Z,13.97
2023-03-31T14:37:55.612Z,13.56
2023-03-31T14:41:01.064Z,13.74
2023-03-31T14:44:06.223Z,13.79
2023-03-31T14:47:15.863Z,13.92
2023-03-31T14:50:20.011Z,13.97
2023-03-31T14:53:25.863Z,13.87
2023-03-31T14:56:34.722Z,13.79
2023-03-31T14:59:37.465Z,13.50
2023-03-31T15:02:45.247Z,13.07
2023-03-31T15:05:50.201Z,13.24
2023-03-31T15:08:57.307Z,13.36
2023-03-31T15:12:02.172Z,13.35
2023-03-31T15:15:07.184Z,13.41
2023-03-31T15:18:13.687Z,13.67
2023-03-31T15:21:22.576Z,13.63
2023-03-31T15:24:25.527Z,13.83
2023-03-31T15:31:09.690Z,13.40
2023-03-31T15:34:18.644Z,13.42
2023-03-31T15:37:25.059Z,13.55
2023-03-31T15:40:30.063Z,13.21
2023-03-31T15:43:43.267Z,13.27
2023-03-31T15:47:00.284Z,13.22
2023-03-31T15:50:13.141Z,13.30
2023-03-31T15:53:29.857Z,12.90
2023-03-31T15:56:38.087Z,12.72
2023-03-31T15:59:55.429Z,12.87
2023-03-31T16:03:00.269Z,12.54
2023-03-31T16:06:09.066Z,12.66
2023-03-31T16:09:15.244Z,12.75
2023-03-31T16:12:24.182Z,12.85
2023-03-31T16:15:33.140Z,12.78
2023-03-31T16:18:39.110Z,12.94
2023-03-31T16:21:47.420Z,12.70
2023-03-31T16:24:50.502Z,12.91
2023-03-31T16:27:56.023Z,12.91
2023-03-31T16:31:01.753Z,12.72
2023-03-31T16:34:06.889Z,12.52
2023-03-31T16:37:11.568Z,12.43
2023-03-31T16:40:14.403Z,12.69
2023-03-31T16:43:18.616Z,12.83
2023-03-31T16:46:21.596Z,12.84
2023-03-31T16:49:24.189Z,12.76
2023-03-31T16:52:28.183Z,12.87
2023-03-31T16:55:32.285Z,12.95
2023-03-31T16:58:35.978Z,12.87
2023-03-31T17:01:38.693Z,12.86
2023-03-31T17:04:41.476Z,12.84
2023-03-31T17:07:47.161Z,12.87
2023-03-31T17:10:53.919Z,12.79
2023-03-31T17:13:56.833Z,12.85
2023-03-31T17:16:59.450Z,12.83
2023-03-31T17:20:02.374Z,12.82
2023-03-31T17:23:06.592Z,12.89
2023-03-31T17:26:10.647Z,12.86
2023-03-31T17:29:15.373Z,12.74
2023-03-31T17:32:19.077Z,12.76
2023-03-31T17:35:22.318Z,12.75
2023-03-31T17:38:26.569Z,12.74
2023-03-31T17:41:30.326Z,12.73
2023-03-31T17:44:32.944Z,12.70
2023-03-31T17:47:35.989Z,12.64
2023-03-31T17:50:38.998Z,12.62
2023-03-31T17:53:44.890Z,12.54
2023-03-31T17:56:50.069Z,12.53
2023-03-31T17:59:52.852Z,12.48
2023-03-31T18:02:55.834Z,12.47
2023-03-31T18:06:03.196Z,12.43
2023-03-31T18:09:08.513Z,12.46
2023-03-31T18:12:11.137Z,12.40
2023-03-31T18:15:13.761Z,12.39
2023-03-31T18:18:16.589Z,12.35
2023-03-31T18:21:19.237Z,12.36
2023-03-31T18:24:23.848Z,12.28
2023-03-31T18:27:26.489Z,12.25
2023-03-31T18:30:29.262Z,12.23
2023-03-31T18:33:31.906Z,12.26
2023-03-31T18:36:35.784Z,12.24
2023-03-31T18:39:39.888Z,12.26
2023-03-31T18:42:42.517Z,12.25
2023-03-31T18:45:45.321Z,12.25
2023-03-31T18:48:47.991Z,12.17
2023-03-31T18:51:51.592Z,12.14
2023-03-31T18:54:55.919Z,12.22
2023-03-31T18:57:58.594Z,12.12
2023-03-31T19:01:02.225Z,12.12
2023-03-31T19:04:04.893Z,12.03
2023-03-31T19:07:07.475Z,11.86
2023-03-31T19:10:12.096Z,11.98
2023-03-31T19:13:16.777Z,12.07
2023-03-31T19:16:19.457Z,12.10
2023-03-31T19:19:22.527Z,12.00
2023-03-31T19:22:27.611Z,12.05
2023-03-31T19:25:31.984Z,12.06
2023-03-31T19:28:34.837Z,11.97
2023-03-31T19:31:40.238Z,11.98
2023-03-31T19:34:43.636Z,12.06
2023-03-31T19:37:46.284Z,12.06
2023-03-31T19:40:50.965Z,12.13
2023-03-31T19:43:53.553Z,12.05
2023-03-31T19:46:58.308Z,11.98
2023-03-31T19:50:00.994Z,12.04
2023-03-31T19:53:03.663Z,12.03
2023-03-31T19:56:09.448Z,12.04
2023-03-31T19:59:12.094Z,12.04
2023-03-31T20:02:14.809Z,11.96
2023-03-31T20:05:19.578Z,11.93
2023-03-31T20:08:22.419Z,11.93
2023-03-31T20:11:27.519Z,11.97
2023-03-31T20:14:30.252Z,11.87
2023-03-31T20:17:32.885Z,11.99
2023-03-31T20:20:35.815Z,12.03
2023-03-31T20:23:38.861Z,11.97
2023-03-31T20:26:42.938Z,11.99
2023-03-31T20:29:45.657Z,12.05
2023-03-31T20:32:48.403Z,11.97
2023-03-31T20:36:00.706Z,12.00
2023-03-31T20:39:05.535Z,12.06
2023-03-31T20:42:10.764Z,12.07
2023-03-31T20:45:13.461Z,12.10
2023-03-31T20:48:16.498Z,12.04
2023-03-31T20:51:21.446Z,12.03
2023-03-31T20:54:24.049Z,11.98
2023-03-31T20:57:28.001Z,11.92
2023-03-31T21:00:30.609Z,11.96
2023-03-31T21:03:33.334Z,11.94
2023-03-31T21:06:39.129Z,11.81
2023-03-31T21:09:42.077Z,11.83
2023-03-31T21:12:46.359Z,11.89
2023-03-31T21:15:50.307Z,11.98
2023-03-31T21:18:54.745Z,12.02
2023-03-31T21:21:57.367Z,11.92
2023-03-31T21:24:59.948Z,11.87
2023-03-31T21:28:04.306Z,11.89
2023-03-31T21:31:08.966Z,11.86
2023-03-31T21:34:11.698Z,11.89
2023-03-31T21:37:14.346Z,11.81
2023-03-31T21:40:17.575Z,11.89
2023-03-31T21:43:21.534Z,11.96
2023-03-31T21:46:26.447Z,12.00
2023-03-31T21:49:29.645Z,11.96
2023-03-31T21:52:33.248Z,11.96
2023-03-31T21:55:38.449Z,11.97
2023-03-31T21:58:42.415Z,11.94
2023-03-31T22:01:45.161Z,11.94
2023-03-31T22:04:47.927Z,11.91
2023-03-31T22:07:50.612Z,11.90
2023-03-31T22:10:54.081Z,11.96
2023-03-31T22:13:58.094Z,11.97
2023-03-31T22:17:00.900Z,11.90
2023-03-31T22:20:04.934Z,11.92
2023-03-31T22:23:07.935Z,11.87
2023-03-31T22:26:10.543Z,11.93
2023-03-31T22:29:17.400Z,11.93
2023-03-31T22:32:21.152Z,11.54
2023-03-31T22:35:24.409Z,11.74
2023-03-31T22:38:27.114Z,11.78
2023-03-31T22:41:29.720Z,11.74
2023-03-31T22:44:35.388Z,11.92
2023-03-31T22:47:38.208Z,11.69
2023-03-31T22:50:41.186Z,11.78
2023-03-31T22:53:43.970Z,11.71
2023-03-31T22:56:46.607Z,11.63
2023-03-31T22:59:50.571Z,11.85
2023-03-31T23:02:53.564Z,11.89
2023-03-31T23:05:56.271Z,11.72
2023-03-31T23:08:59.242Z,11.74
2023-03-31T23:12:01.828Z,11.79
2023-03-31T23:15:06.392Z,11.80
2023-03-31T23:18:08.976Z,11.60
2023-03-31T23:21:11.841Z,11.71
2023-03-31T23:24:14.426Z,11.61
2023-03-31T23:27:17.587Z,11.74
2023-03-31T23:30:21.560Z,11.71
2023-03-31T23:33:24.343Z,11.72
2023-03-31T23:36:27.515Z,11.74
2023-03-31T23:39:30.179Z,11.72
2023-03-31T23:42:32.777Z,11.76
2023-03-31T23:45:36.742Z,11.74
2023-03-31T23:48:40.604Z,11.71
2023-03-31T23:51:43.201Z,11.69
2023-03-31T23:54:45.810Z,11.71
2023-03-31T23:57:48.429Z,11.67
